createdAt,value
2023-02-17T02:38:00.186Z,2.15
2023-02-17T02:41:21.812Z,2.05
2023-02-17T02:44:35.357Z,2.50
2023-02-17T02:47:57.354Z,2.28
2023-02-17T02:51:30.228Z,2.75
2023-02-17T02:54:52.739Z,1.83
2023-02-17T02:58:10.737Z,2.08
2023-02-17T03:01:26.714Z,2.17
2023-02-17T03:04:38.246Z,2.13
2023-02-17T03:07:50.311Z,2.05
2023-02-17T03:10:59.179Z,2.33
2023-02-17T03:14:08.209Z,1.95
2023-02-17T03:17:12.019Z,2.40
2023-02-17T03:20:19.307Z,2.00
2023-02-17T03:23:26.879Z,2.20
2023-02-17T03:26:33.130Z,2.15
2023-02-17T03:29:40.088Z,1.98
2023-02-17T03:32:48.018Z,1.88
2023-02-17T03:35:53.089Z,1.83
2023-02-17T03:39:02.144Z,1.58
2023-02-17T03:42:11.373Z,1.75
2023-02-17T03:45:14.820Z,1.88
2023-02-17T03:48:21.508Z,2.15
2023-02-17T03:51:29.128Z,2.40
2023-02-17T03:54:33.110Z,1.60
2023-02-17T03:57:39.535Z,1.55
2023-02-17T04:00:45.232Z,1.30
2023-02-17T04:03:50.748Z,1.60
2023-02-17T04:06:59.091Z,2.42
2023-02-17T04:10:05.872Z,1.77
2023-02-17T04:13:12.695Z,1.70
2023-02-17T04:16:18.091Z,1.70
2023-02-17T04:19:24.162Z,1.52
2023-02-17T04:22:31.020Z,1.65
2023-02-17T04:25:40.112Z,1.60
2023-02-17T04:28:50.541Z,1.80
2023-02-17T04:31:57.631Z,1.92
2023-02-17T04:35:07.771Z,1.25
2023-02-17T04:41:24.514Z,1.50
2023-02-17T04:44:37.132Z,1.85
2023-02-17T04:47:44.588Z,1.60
2023-02-17T04:50:53.687Z,1.77
2023-02-17T04:53:59.306Z,1.30
2023-02-17T04:57:07.441Z,1.30
2023-02-17T05:00:15.870Z,1.38
2023-02-17T05:03:25.260Z,1.67
2023-02-17T05:06:36.814Z,1.40
2023-02-17T05:09:42.488Z,1.35
2023-02-17T05:12:50.568Z,1.60
2023-02-17T05:16:14.713Z,1.50
2023-02-17T05:19:28.968Z,1.63
2023-02-17T05:22:36.907Z,1.40
2023-02-17T05:25:44.061Z,1.45
2023-02-17T05:28:55.559Z,1.80
2023-02-17T05:32:11.180Z,1.77
2023-02-17T05:35:23.767Z,1.85
2023-02-17T05:38:30.722Z,1.38
2023-02-17T05:41:36.115Z,1.83
2023-02-17T05:44:42.096Z,2.17
2023-02-17T05:47:50.944Z,1.60
2023-02-17T05:50:58.218Z,1.55
2023-02-17T05:54:05.841Z,1.63
2023-02-17T05:57:14.604Z,1.52
2023-02-17T06:00:27.589Z,1.50
2023-02-17T06:03:37.024Z,1.30
2023-02-17T06:06:43.580Z,1.65
2023-02-17T06:09:53.770Z,1.63
2023-02-17T06:13:00.751Z,1.63
2023-02-17T06:16:13.308Z,2.35
2023-02-17T06:19:25.693Z,1.80
2023-02-17T06:22:34.070Z,1.52
2023-02-17T06:25:42.903Z,1.25
2023-02-17T06:28:49.826Z,1.48
2023-02-17T06:31:59.293Z,1.20
2023-02-17T06:35:14.093Z,1.48
2023-02-17T06:38:22.609Z,1.40
2023-02-17T06:41:49.764Z,1.50
2023-02-17T06:44:55.116Z,1.25
2023-02-17T06:48:01.868Z,1.88
2023-02-17T06:51:19.342Z,1.77
2023-02-17T06:54:21.858Z,1.38
2023-02-17T06:57:27.828Z,1.30
2023-02-17T07:00:34.240Z,1.60
2023-02-17T07:03:39.566Z,1.45
2023-02-17T07:06:47.895Z,1.50
2023-02-17T07:09:51.498Z,1.27
2023-02-17T07:12:56.686Z,1.52
2023-02-17T07:15:59.558Z,1.02
2023-02-17T07:19:04.082Z,1.20
2023-02-17T07:22:11.123Z,1.20
2023-02-17T07:25:15.740Z,0.88
2023-02-17T07:31:25.323Z,1.05
2023-02-17T07:34:29.758Z,1.63
2023-02-17T07:37:36.342Z,1.27
2023-02-17T07:40:43.300Z,1.73
2023-02-17T07:43:50.674Z,1.42
2023-02-17T07:46:57.121Z,1.17
2023-02-17T07:50:01.178Z,1.13
2023-02-17T07:53:07.105Z,1.42
2023-02-17T07:56:13.200Z,1.30
2023-02-17T07:59:19.737Z,1.20
2023-02-17T08:02:23.318Z,0.40
2023-02-17T08:08:55.387Z,1.17
2023-02-17T08:12:19.645Z,1.00
2023-02-17T08:15:28.448Z,1.15
2023-02-17T08:18:36.785Z,0.38
2023-02-17T08:21:42.253Z,0.77
2023-02-17T08:24:51.286Z,1.52
2023-02-17T08:27:58.235Z,1.60
2023-02-17T08:31:03.277Z,1.02
2023-02-17T08:34:13.259Z,0.70
2023-02-17T08:37:17.268Z,1.27
2023-02-17T08:40:22.468Z,1.20
2023-02-17T08:43:26.648Z,1.33
2023-02-17T08:46:31.567Z,0.73
2023-02-17T08:49:36.308Z,1.30
2023-02-17T08:52:42.085Z,0.80
2023-02-17T08:55:49.769Z,1.35
2023-02-17T08:58:55.335Z,1.80
2023-02-17T09:02:00.504Z,1.30
2023-02-17T09:05:05.083Z,1.23
2023-02-17T09:11:17.548Z,0.68
2023-02-17T09:14:24.656Z,0.90
2023-02-17T09:17:32.438Z,1.17
2023-02-17T09:20:40.478Z,1.23
2023-02-17T09:23:44.979Z,1.15
2023-02-17T09:26:50.433Z,1.10
2023-02-17T09:29:55.589Z,1.13
2023-02-17T09:33:01.245Z,0.80
2023-02-17T09:39:14.519Z,0.68
2023-02-17T09:42:25.260Z,1.00
2023-02-17T09:45:37.352Z,0.85
2023-02-17T09:48:43.712Z,0.90
2023-02-17T09:51:54.507Z,1.17
2023-02-17T09:55:04.408Z,0.80
2023-02-17T09:58:16.143Z,0.80
2023-02-17T10:01:24.067Z,1.02
2023-02-17T10:04:34.718Z,1.10
2023-02-17T10:07:47.667Z,1.17
2023-02-17T10:11:00.243Z,0.93
2023-02-17T10:14:13.305Z,0.98
2023-02-17T10:17:26.080Z,0.73
2023-02-17T10:20:35.459Z,0.90
2023-02-17T10:23:40.413Z,1.10
2023-02-17T10:27:01.271Z,1.02
2023-02-17T10:30:21.915Z,1.00
2023-02-17T10:33:34.525Z,0.90
2023-02-17T10:36:52.905Z,1.00
2023-02-17T10:39:59.517Z,0.90
2023-02-17T10:43:10.980Z,0.90
2023-02-17T10:46:22.581Z,1.40
2023-02-17T10:49:33.266Z,0.75
2023-02-17T10:52:40.673Z,1.08
2023-02-17T10:56:01.666Z,1.05
2023-02-17T10:59:15.313Z,1.10
2023-02-17T11:02:26.009Z,0.75
2023-02-17T11:05:35.658Z,0.80
2023-02-17T11:11:55.721Z,1.48
2023-02-17T11:14:59.558Z,0.90
2023-02-17T11:18:11.772Z,1.00
2023-02-17T11:21:13.991Z,0.75
2023-02-17T11:24:17.970Z,1.10
2023-02-17T11:27:27.196Z,0.75
2023-02-17T11:30:34.039Z,0.85
2023-02-17T11:33:43.736Z,1.10
2023-02-17T11:37:01.588Z,0.85
2023-02-17T11:40:26.556Z,1.35
2023-02-17T11:43:35.021Z,1.10
2023-02-17T11:46:48.065Z,0.95
2023-02-17T11:50:38.984Z,1.23
2023-02-17T11:54:02.234Z,1.10
2023-02-17T12:00:33.621Z,0.82
2023-02-17T12:04:18.343Z,1.20
2023-02-17T12:08:01.242Z,0.88
2023-02-17T12:11:17.626Z,1.02
2023-02-17T12:14:44.739Z,0.95
2023-02-17T12:18:02.272Z,0.90
2023-02-17T12:21:13.274Z,0.85
2023-02-17T12:24:43.468Z,1.05
2023-02-17T12:28:00.585Z,0.90
2023-02-17T12:31:16.526Z,1.00
2023-02-17T12:34:30.541Z,0.95
2023-02-17T12:37:48.356Z,1.00
2023-02-17T12:40:58.940Z,0.70
2023-02-17T12:44:09.276Z,0.63
2023-02-17T12:47:31.078Z,0.40
2023-02-17T12:50:42.752Z,0.47
2023-02-17T12:54:00.103Z,0.70
2023-02-17T12:57:14.776Z,0.40
2023-02-17T13:00:23.088Z,0.60
2023-02-17T13:03:33.724Z,0.60
2023-02-17T13:06:45.571Z,0.10
2023-02-17T13:09:54.821Z,0.52
2023-02-17T13:13:09.821Z,0.50
2023-02-17T13:16:17.956Z,0.35
2023-02-17T13:19:31.529Z,0.32
2023-02-17T13:22:37.766Z,0.32
2023-02-17T13:25:42.195Z,0.10
2023-02-17T13:28:57.381Z,0.50
2023-02-17T13:33:04.341Z,0.30
2023-02-17T13:36:37.404Z,0.05
2023-02-17T13:39:50.163Z,0.40
2023-02-17T13:43:04.206Z,0.40
2023-02-17T13:46:25.883Z,0.40
2023-02-17T13:49:36.231Z,0.30
2023-02-17T13:52:46.208Z,0.30
2023-02-17T13:55:54.159Z,0.10
2023-02-17T13:59:41.375Z,0.30
2023-02-17T14:02:59.668Z,0.20
2023-02-17T14:16:33.914Z,0.47
2023-02-17T14:19:49.074Z,0.52
2023-02-17T14:23:12.569Z,0.30
2023-02-17T14:26:32.274Z,1.00
2023-02-17T14:29:42.145Z,0.38
2023-02-17T14:39:08.553Z,0.30
2023-02-17T14:42:16.314Z,0.30
2023-02-17T14:45:24.265Z,0.63
2023-02-17T14:49:11.538Z,0.03
2023-02-17T14:52:24.664Z,0.45
2023-02-17T14:56:05.076Z,0.55
2023-02-17T14:59:19.325Z,0.20
2023-02-17T15:08:11.084Z,0.45
2023-02-17T15:11:46.750Z,0.40
2023-02-17T15:14:57.309Z,0.00
2023-02-17T15:18:09.913Z,0.70
2023-02-17T15:21:33.196Z,0.13
2023-02-17T15:24:48.917Z,0.30
2023-02-17T15:28:03.208Z,1.33
2023-02-17T15:31:16.581Z,0.10
2023-02-17T15:34:25.396Z,0.28
2023-02-17T15:37:30.537Z,0.90
2023-02-17T15:40:36.559Z,0.70
2023-02-17T15:43:46.715Z,1.10
2023-02-17T15:46:52.792Z,0.77
2023-02-17T15:50:00.667Z,0.70
2023-02-17T15:53:08.319Z,1.58
2023-02-17T15:56:20.525Z,1.00
2023-02-17T15:59:29.931Z,1.13
2023-02-17T16:02:39.892Z,0.90
2023-02-17T16:05:45.459Z,0.82
2023-02-17T16:08:54.387Z,1.23
2023-02-17T16:12:03.552Z,1.02
2023-02-17T16:15:15.514Z,1.00
2023-02-17T16:18:25.041Z,1.23
2023-02-17T16:21:43.288Z,1.30
2023-02-17T16:24:55.713Z,0.90
2023-02-17T16:28:18.144Z,1.10
2023-02-17T17:19:24.664Z,1.95
2023-02-17T17:22:27.968Z,1.83
2023-02-17T17:25:34.977Z,1.48
2023-02-17T17:29:05.515Z,1.80
2023-02-17T17:32:27.729Z,1.38
2023-02-17T17:35:47.750Z,1.38
2023-02-17T17:38:55.851Z,1.75
2023-02-17T17:42:02.819Z,1.60
2023-02-17T17:45:10.992Z,1.52
2023-02-17T17:48:27.538Z,1.05
2023-02-17T18:57:22.700Z,1.50
2023-02-17T19:03:49.584Z,1.42
2023-02-17T19:12:24.124Z,1.25
